createdAt,value
2022-11-22T00:00:53.564Z,66.71
2022-11-22T00:03:21.672Z,67.86
2022-11-22T00:05:49.723Z,66.89
2022-11-22T00:08:17.855Z,66.59
2022-11-22T00:10:49.099Z,66.75
2022-11-22T00:13:17.469Z,66.85
2022-11-22T00:15:45.853Z,67.39
2022-11-22T00:18:13.939Z,66.92
2022-11-22T00:20:42.005Z,67.38
2022-11-22T00:23:10.031Z,66.59
2022-11-22T00:25:38.091Z,67.09
2022-11-22T00:28:07.592Z,66.76
2022-11-22T00:30:35.737Z,66.92
2022-11-22T00:33:03.821Z,67.56
2022-11-22T00:35:31.986Z,67.05
2022-11-22T00:38:00.066Z,66.46
2022-11-22T00:40:28.160Z,67.69
2022-11-22T00:42:56.244Z,66.53
2022-11-22T00:45:25.729Z,66.58
2022-11-22T00:47:53.843Z,67.11
2022-11-22T00:50:21.961Z,66.61
2022-11-22T00:52:49.974Z,67.60
2022-11-22T00:55:18.200Z,67.02
2022-11-22T00:57:46.282Z,67.72
2022-11-22T01:00:14.705Z,67.25
2022-11-22T01:02:44.211Z,67.20
2022-11-22T01:05:12.321Z,67.63
2022-11-22T01:07:40.437Z,67.05
2022-11-22T01:10:08.896Z,66.43
2022-11-22T01:12:37.095Z,67.05
2022-11-22T01:15:05.755Z,67.17
2022-11-22T01:17:33.962Z,67.13
2022-11-22T01:20:03.669Z,68.03
2022-11-22T01:22:31.855Z,67.32
2022-11-22T01:24:59.977Z,67.24
2022-11-22T01:27:28.061Z,68.10
2022-11-22T01:29:56.186Z,67.42
2022-11-22T01:32:24.606Z,68.09
2022-11-22T01:34:52.821Z,68.02
2022-11-22T01:37:22.322Z,67.73
2022-11-22T01:39:50.404Z,67.80
2022-11-22T01:42:18.458Z,67.23
2022-11-22T01:44:48.699Z,67.72
2022-11-22T01:47:18.623Z,68.33
2022-11-22T01:49:49.906Z,67.77
2022-11-22T01:52:19.697Z,68.26
2022-11-22T01:54:52.752Z,68.28
2022-11-22T01:57:23.445Z,68.93
2022-11-22T01:59:53.145Z,68.81
2022-11-22T02:02:21.252Z,68.44
2022-11-22T02:04:51.648Z,68.78
2022-11-22T02:07:22.847Z,68.61
2022-11-22T02:09:53.266Z,68.69
2022-11-22T02:12:24.681Z,69.71
2022-11-22T02:14:53.633Z,69.55
2022-11-22T02:17:21.767Z,69.97
2022-11-22T02:19:50.860Z,68.71
2022-11-22T02:22:29.821Z,69.75
2022-11-22T02:25:03.449Z,69.32
2022-11-22T02:27:33.016Z,69.64
2022-11-22T02:30:01.127Z,69.07
2022-11-22T02:32:29.278Z,68.92
2022-11-22T02:34:57.351Z,70.08
2022-11-22T02:37:26.723Z,70.01
2022-11-22T02:39:58.422Z,69.51
2022-11-22T02:42:26.781Z,69.75
2022-11-22T02:44:56.259Z,69.93
2022-11-22T02:47:24.299Z,68.82
2022-11-22T02:49:53.959Z,68.96
2022-11-22T02:52:22.126Z,68.85
2022-11-22T02:54:50.175Z,69.01
2022-11-22T02:57:18.218Z,70.04
2022-11-22T02:59:46.262Z,69.36
2022-11-22T03:02:15.719Z,69.89
2022-11-22T03:04:43.801Z,70.07
2022-11-22T03:07:11.937Z,69.94
2022-11-22T03:09:40.005Z,69.87
2022-11-22T03:12:08.272Z,69.30
2022-11-22T03:14:36.377Z,69.62
2022-11-22T03:17:04.443Z,68.78
2022-11-22T03:19:34.290Z,69.75
2022-11-22T03:22:02.363Z,69.47
2022-11-22T03:24:30.408Z,69.52
2022-11-22T03:26:58.499Z,69.87
2022-11-22T03:29:26.688Z,70.35
2022-11-22T03:31:57.606Z,70.85
2022-11-22T03:34:25.659Z,71.16
2022-11-22T03:36:55.144Z,71.25
2022-11-22T03:39:23.251Z,71.08
2022-11-22T03:41:51.344Z,71.22
2022-11-22T03:44:19.465Z,71.25
2022-11-22T03:46:47.897Z,71.08
2022-11-22T03:49:16.092Z,70.82
2022-11-22T03:51:44.210Z,72.01
2022-11-22T03:54:14.264Z,71.28
2022-11-22T03:56:42.359Z,72.32
2022-11-22T03:59:10.493Z,72.00
2022-11-22T04:01:38.669Z,72.91
2022-11-22T04:04:06.920Z,72.67
2022-11-22T04:06:35.012Z,72.74
2022-11-22T04:09:03.181Z,73.24
2022-11-22T04:11:32.960Z,72.75
2022-11-22T04:14:18.552Z,73.59
2022-11-22T04:16:46.596Z,73.08
2022-11-22T04:19:14.712Z,73.19
2022-11-22T04:21:41.832Z,73.09
2022-11-22T04:24:28.200Z,74.10
2022-11-22T04:26:57.698Z,74.07
2022-11-22T04:29:25.749Z,73.10
2022-11-22T04:32:11.774Z,73.38
2022-11-22T04:34:39.897Z,73.10
2022-11-22T04:37:07.966Z,74.32
2022-11-22T04:39:36.098Z,73.58
2022-11-22T04:42:23.627Z,73.36
2022-11-22T04:44:51.753Z,74.31
2022-11-22T04:47:33.913Z,73.66
2022-11-22T04:50:02.371Z,74.57
2022-11-22T04:52:48.364Z,74.82
2022-11-22T04:55:16.459Z,74.87
2022-11-22T04:57:45.905Z,75.26
2022-11-22T05:00:14.139Z,73.82
2022-11-22T05:02:42.192Z,74.62
2022-11-22T05:05:10.808Z,74.44
2022-11-22T05:07:38.987Z,74.34
2022-11-22T05:10:07.480Z,75.14
2022-11-22T05:12:35.617Z,74.33
2022-11-22T05:15:06.338Z,74.92
2022-11-22T05:17:34.479Z,75.00
2022-11-22T05:20:02.810Z,75.13
2022-11-22T05:22:44.942Z,75.49
2022-11-22T05:25:13.032Z,76.04
2022-11-22T05:27:41.217Z,76.03
2022-11-22T05:30:11.086Z,75.96
2022-11-22T05:32:39.121Z,76.29
2022-11-22T05:35:07.533Z,76.42
2022-11-22T05:37:35.578Z,76.76
2022-11-22T05:40:03.672Z,76.71
2022-11-22T05:42:32.630Z,75.79
2022-11-22T05:45:00.676Z,76.48
2022-11-22T05:47:30.121Z,75.71
2022-11-22T05:49:58.222Z,76.07
2022-11-22T05:52:26.300Z,76.72
2022-11-22T05:54:54.373Z,77.11
2022-11-22T05:57:22.510Z,76.77
2022-11-22T05:59:50.647Z,76.42
2022-11-22T06:02:18.859Z,76.89
2022-11-22T06:04:48.342Z,76.71
2022-11-22T06:07:16.599Z,76.89
2022-11-22T06:09:45.452Z,76.75
2022-11-22T06:12:13.528Z,76.88
2022-11-22T06:14:43.536Z,76.67
2022-11-22T06:17:11.880Z,76.88
2022-11-22T06:19:40.002Z,76.32
2022-11-22T06:22:10.291Z,76.75
2022-11-22T06:24:38.364Z,76.43
2022-11-22T06:27:06.382Z,76.51
2022-11-22T06:29:34.503Z,77.52
2022-11-22T06:32:04.019Z,77.64
2022-11-22T06:34:32.400Z,77.94
2022-11-22T06:37:01.320Z,77.57
2022-11-22T06:39:31.243Z,78.04
2022-11-22T06:41:59.799Z,77.94
2022-11-22T06:44:27.894Z,77.94
2022-11-22T06:46:55.938Z,78.18
2022-11-22T06:49:24.035Z,77.84
2022-11-22T06:51:52.179Z,77.84
2022-11-22T06:54:20.372Z,77.63
2022-11-22T06:56:49.962Z,77.58
2022-11-22T06:59:18.071Z,77.57
2022-11-22T07:01:46.260Z,77.60
2022-11-22T07:04:14.370Z,77.79
2022-11-22T07:06:44.308Z,77.73
2022-11-22T07:09:12.926Z,77.35
2022-11-22T07:11:41.292Z,77.67
2022-11-22T07:14:10.891Z,77.44
2022-11-22T07:16:39.415Z,77.21
2022-11-22T07:19:08.164Z,77.13
2022-11-22T07:21:37.543Z,77.58
2022-11-22T07:24:06.806Z,77.55
2022-11-22T07:26:34.875Z,78.18
2022-11-22T07:29:02.992Z,78.24
2022-11-22T07:31:32.550Z,78.17
2022-11-22T07:34:01.111Z,78.86
2022-11-22T07:36:30.533Z,79.09
2022-11-22T07:38:58.644Z,79.16
2022-11-22T07:41:26.810Z,78.87
2022-11-22T07:43:55.822Z,78.39
2022-11-22T07:46:25.067Z,78.68
2022-11-22T07:48:54.583Z,78.59
2022-11-22T07:51:22.741Z,78.10
2022-11-22T07:53:51.072Z,77.97
2022-11-22T07:56:19.254Z,78.69
2022-11-22T07:58:47.407Z,78.55
2022-11-22T08:01:16.806Z,78.86
2022-11-22T08:03:45.115Z,79.18
2022-11-22T08:06:14.882Z,78.43
2022-11-22T08:08:43.087Z,78.98
2022-11-22T08:11:11.527Z,78.91
2022-11-22T08:13:39.649Z,78.90
2022-11-22T08:16:09.669Z,79.02
2022-11-22T08:18:38.757Z,78.99
2022-11-22T08:21:07.807Z,79.18
2022-11-22T08:23:37.784Z,78.97
2022-11-22T08:26:06.552Z,79.29
2022-11-22T08:28:34.728Z,79.34
2022-11-22T08:31:04.895Z,79.16
2022-11-22T08:33:33.043Z,79.53
2022-11-22T08:36:01.137Z,79.81
2022-11-22T08:38:29.234Z,79.75
2022-11-22T08:40:58.988Z,79.93
2022-11-22T08:43:27.153Z,79.85
2022-11-22T08:45:56.172Z,80.05
2022-11-22T08:48:24.362Z,79.97
2022-11-22T08:50:53.130Z,80.04
2022-11-22T08:53:21.466Z,79.74
2022-11-22T08:55:49.536Z,80.19
2022-11-22T08:58:19.060Z,79.78
2022-11-22T09:00:47.256Z,79.80
2022-11-22T09:03:15.293Z,79.98
2022-11-22T09:08:35.926Z,81.06
2022-11-22T09:11:05.708Z,80.98
2022-11-22T09:13:35.375Z,80.85
2022-11-22T09:16:03.920Z,80.39
2022-11-22T09:18:32.206Z,80.81
2022-11-22T09:21:00.621Z,81.06
2022-11-22T09:23:28.815Z,80.82
2022-11-22T09:26:00.208Z,80.48
2022-11-22T09:28:28.521Z,80.53
2022-11-22T09:31:01.891Z,81.00
2022-11-22T09:33:30.043Z,80.42
2022-11-22T09:36:02.264Z,80.63
2022-11-22T09:38:30.719Z,81.00
2022-11-22T09:40:59.487Z,80.87
2022-11-22T09:43:32.426Z,80.52
2022-11-22T09:46:15.312Z,80.58
2022-11-22T09:48:54.515Z,80.74
2022-11-22T09:51:24.636Z,80.35
2022-11-22T09:53:54.515Z,80.83
2022-11-22T09:56:24.358Z,80.55
2022-11-22T09:58:54.191Z,80.33
2022-11-22T10:01:24.732Z,80.39
2022-11-22T10:03:56.191Z,80.23
2022-11-22T10:06:28.017Z,80.66
2022-11-22T10:09:00.744Z,80.21
2022-11-22T10:11:36.740Z,80.64
2022-11-22T10:14:07.989Z,81.03
2022-11-22T10:16:39.829Z,80.64
2022-11-22T10:19:13.186Z,80.31
2022-11-22T10:21:42.301Z,80.24
2022-11-22T10:24:13.544Z,80.29
2022-11-22T10:26:41.938Z,80.49
2022-11-22T10:29:26.290Z,80.91
2022-11-22T10:31:59.476Z,80.66
2022-11-22T10:34:36.554Z,80.71
2022-11-22T10:37:06.713Z,81.06
